Manns Choice, PA (15550)

10:11 PM EDT on April 20, 2015 (GMT -0400)
Bedford County | | Change Station
CLOSE
Current Station
Airport
Location: Bedford County,
Elevation: 1161 ft
Nearby Weather Stations

Elev 1161 ft 40.08 °N, 78.50 °W | Updated 16 minutes ago

Partly Cloudy
Partly Cloudy
58 °F
Feels Like 58 °F
N
8
Wind Variable Wind from SW

Today
High -- | Low -- °F
--% Chance of Precip.
Yesterday
High -- | Low -- °F
Precip. -- in
6:29 AM 7:57 PM
Waxing Crescent, 7% visible
Pressure 29.58 in
Visibility 10.0 miles
Clouds Scattered Clouds 3500 ft
Mostly Cloudy 6500 ft
Overcast 10000 ft
Dew Point 48 °F
Humidity 68%
Rainfall 1.67 in
Snow Depth Not available.
UV 0 out of 12
Pollen 1.50 out of 12
Air Quality Not available.
Flu Activity Sporadic
METAR KHMZ 210155Z AUTO 23007KT 10SM RA SCT035 BKN065 OVC100 15/09 A2958 RMK AO2 T01470088

More Conditions Fewer Conditions

Pressure 29.58 in
Visibility 10.0 miles
Clouds Scattered Clouds 3500 ft
Mostly Cloudy 6500 ft
Overcast 10000 ft
Dew Point 48 °F
Humidity 68%
Rainfall 1.67 in
Snow Depth Not available.
UV 0 out of 12
Pollen 1.50 out of 12
Air Quality Not available.
Flu Activity Sporadic
METAR KHMZ 210155Z AUTO 23007KT 10SM RA SCT035 BKN065 OVC100 15/09 A2958 RMK AO2 T01470088

More Conditions Fewer Conditions

The Storm Prediction Center has issued an enhanced risk of severe weather for parts of the Mid-Atlantic and Northeast, including Washington, D.C. Isolated tornadoes cannot be ruled out, but the biggest threat will come from strong thunderstorms producing strong winds and large hail. Tornado Watches are also posted for parts of Georgia, South Carolina, and North Carolina.

10-Day Weather Forecast

Almanac

Astronomy

Apr. 20, 2015 Rise Set
Actual Time
Civil Twilight
Nautical Twilight
Astronomical Twilight
Moon
Length of Visible Light
Length of Day
Tomorrow will be .
, % of the Moon is Illuminated

Today's Extremes

State Highs State Lows

Community

WunderPhotos

Upload Photos

1,815,278 photos uploaded!

WunderBlogs® & News

Nearby

Air Quality

  Air Quality AQ Index Pollutant
Not available.

Snow Depth

Station Depth Elevation

Earthquake Activity

City Distance Mag. Time & Date
Minimum magnitude displayed is 2.5.

Coastal Water Temperatures

Place Temperature

Stations

Nearby Weather Stations

Station Location Temp. Windchill Dew Point Humidity Wind Precip. Elev Updated Type